Big Run, WV (26561)

3:57 PM EDT on August 29, 2016 (GMT -0400)
Curtisville | | Change Station

Elev 1017 ft 39.52 °N, 80.44 °W | Updated 3 minutes ago

Partly Cloudy
Partly Cloudy
84.7 °F
Feels Like 87 °F
N
1.1
Wind Variable Wind from ESE

Today
High -- | Low -- °F
--% Chance of Precip.
Yesterday
High -- | Low -- °F
Precip. -- in
Pressure 30.14 in
Visibility 10.0 miles
Clouds Few 3800 ft
Heat Index 87 °F
Dew Point 66 °F
Humidity 54%
Rainfall 0.02 in
Snow Depth Not available.
6:48 AM 7:57 PM
Waning Crescent, 7% visible
METAR KCKB 291953Z 32008KT 10SM FEW038 30/20 A3018 RMK AO2 SLP204 T03000200
Pressure 30.14 in
Visibility 10.0 miles
Clouds Few 3800 ft
Heat Index 87 °F
Dew Point 66 °F
Humidity 54%
Rainfall 0.02 in
Snow Depth Not available.
6:48 AM 7:57 PM
Waning Crescent, 7% visible
METAR KCKB 291953Z 32008KT 10SM FEW038 30/20 A3018 RMK AO2 SLP204 T03000200

10-Day Weather Forecast

Almanac

Astronomy

Aug. 29, 2016 Rise Set
Actual Time
Civil Twilight
Nautical Twilight
Astronomical Twilight
Moon
Length of Visible Light
Length of Day
Tomorrow will be .
, % of the Moon is Illuminated

Today's Extremes

State Highs State Lows

Community

WunderPhotos

Upload Photos

1,935,642 photos uploaded!

WunderBlog® & News

Nearby

Air Quality

  Air Quality AQ Index Pollutant
Not available.

Snow Depth

Station Depth Elevation

Earthquake Activity

City Distance Mag. Time & Date
Minimum magnitude displayed is 2.5.

Coastal Water Temperatures

Place Temperature

Stations

Nearby Weather Stations

Station Location Temp. Windchill Dew Point Humidity Wind Precip. Elev Updated Type
                   

Watches & Warnings

There are currently no watches in effect.